createdAt,value
2018-03-19T00:02:06.757Z,4.97
2018-03-19T00:04:34.325Z,4.10
2018-03-19T00:07:02.103Z,4.43
2018-03-19T00:09:30.174Z,4.80
2018-03-19T00:11:57.739Z,3.97
2018-03-19T00:14:25.293Z,4.20
2018-03-19T00:16:52.811Z,4.30
2018-03-19T00:19:20.556Z,4.83
2018-03-19T00:21:48.088Z,4.37
2018-03-19T00:24:15.604Z,4.77
2018-03-19T00:26:43.139Z,4.70
2018-03-19T00:29:10.653Z,4.60
2018-03-19T00:31:38.189Z,4.30
2018-03-19T00:34:05.745Z,4.70
2018-03-19T00:36:33.436Z,4.43
2018-03-19T00:39:01.028Z,4.27
2018-03-19T00:41:28.704Z,4.20
2018-03-19T00:43:57.068Z,4.30
2018-03-19T00:46:25.465Z,4.10
2018-03-19T00:48:53.012Z,4.13
2018-03-19T00:51:20.650Z,4.30
2018-03-19T00:53:48.228Z,4.67
2018-03-19T00:56:16.532Z,4.37
2018-03-19T00:58:44.831Z,4.33
2018-03-19T01:01:12.361Z,4.47
2018-03-19T01:03:39.893Z,5.20
2018-03-19T01:06:07.409Z,4.40
2018-03-19T01:08:35.009Z,4.40
2018-03-19T01:11:02.802Z,4.10
2018-03-19T01:13:30.595Z,4.93
2018-03-19T01:15:58.140Z,4.93
2018-03-19T01:18:25.708Z,5.43
2018-03-19T01:20:53.987Z,5.00
2018-03-19T01:23:22.339Z,4.37
2018-03-19T01:25:50.024Z,4.87
2018-03-19T01:28:17.540Z,4.80
2018-03-19T01:30:45.080Z,4.93
2018-03-19T01:33:12.597Z,5.30
2018-03-19T01:35:40.141Z,4.87
2018-03-19T01:38:08.417Z,4.60
2018-03-19T01:40:36.792Z,4.80
2018-03-19T01:43:04.414Z,5.03
2018-03-19T01:45:32.284Z,5.17
2018-03-19T01:48:00.067Z,4.37
2018-03-19T01:50:27.597Z,5.57
2018-03-19T01:52:55.180Z,5.17
2018-03-19T01:55:23.476Z,4.77
2018-03-19T01:57:51.858Z,4.90
2018-03-19T02:00:20.256Z,4.70
2018-03-19T02:02:48.544Z,4.47
2018-03-19T02:05:16.850Z,5.20
2018-03-19T02:07:44.372Z,5.57
2018-03-19T02:10:11.886Z,5.63
2018-03-19T02:12:39.432Z,4.93
2018-03-19T02:15:07.712Z,5.17
2018-03-19T02:17:35.333Z,5.00
2018-03-19T02:20:03.068Z,5.33
2018-03-19T02:22:30.934Z,5.40
2018-03-19T02:24:58.737Z,5.23
2018-03-19T02:27:26.296Z,5.10
2018-03-19T02:29:54.597Z,5.60
2018-03-19T02:32:23.063Z,5.07
2018-03-19T02:34:50.732Z,4.90
2018-03-19T02:37:18.853Z,5.47
2018-03-19T02:39:46.384Z,5.27
2018-03-19T02:42:13.932Z,5.37
2018-03-19T02:44:41.448Z,4.70
2018-03-19T02:47:09.750Z,5.13
2018-03-19T02:49:37.277Z,4.60
2018-03-19T02:52:04.895Z,5.40
2018-03-19T02:54:33.448Z,4.70
2018-03-19T02:57:01.158Z,5.50
2018-03-19T02:59:30.872Z,5.00
2018-03-19T03:01:59.309Z,5.43
2018-03-19T03:04:26.901Z,5.20
2018-03-19T03:06:54.415Z,5.20
2018-03-19T03:09:22.809Z,4.90
2018-03-19T03:11:50.438Z,5.27
2018-03-19T03:14:17.996Z,5.70
2018-03-19T03:16:45.512Z,5.87
2018-03-19T03:19:13.817Z,5.20
2018-03-19T03:21:41.332Z,5.53
2018-03-19T03:24:08.916Z,5.03
2018-03-19T03:26:36.468Z,4.97
2018-03-19T03:29:04.160Z,5.53
2018-03-19T03:31:32.798Z,4.93
2018-03-19T03:34:00.731Z,4.87
2018-03-19T03:36:28.404Z,5.00
2018-03-19T03:38:56.454Z,5.40
2018-03-19T03:41:24.028Z,5.90
2018-03-19T03:43:51.575Z,4.90
2018-03-19T03:46:19.919Z,5.40
2018-03-19T03:48:47.427Z,5.00
2018-03-19T03:51:15.729Z,5.33
2018-03-19T03:53:43.245Z,5.47
2018-03-19T03:56:10.784Z,5.63
2018-03-19T03:58:38.321Z,5.40
2018-03-19T04:01:06.724Z,5.13
2018-03-19T04:03:35.444Z,5.57
2018-03-19T04:06:03.150Z,5.93
2018-03-19T04:08:31.585Z,5.63
2018-03-19T04:10:59.218Z,5.57
2018-03-19T04:13:26.749Z,5.17
2018-03-19T04:15:54.279Z,5.40
2018-03-19T04:18:21.960Z,5.60
2018-03-19T04:20:49.547Z,5.00
2018-03-19T04:23:17.091Z,5.37
2018-03-19T04:25:44.620Z,5.30
2018-03-19T04:28:12.155Z,5.10
2018-03-19T04:30:40.436Z,6.10
2018-03-19T04:33:08.736Z,6.07
2018-03-19T04:35:37.060Z,5.87
2018-03-19T04:38:04.651Z,5.73
2018-03-19T04:40:32.216Z,5.80
2018-03-19T04:43:01.115Z,5.77
2018-03-19T04:45:28.694Z,5.70
2018-03-19T04:47:56.240Z,5.47
2018-03-19T04:50:23.768Z,6.10
2018-03-19T04:52:52.133Z,6.10
2018-03-19T04:55:20.474Z,6.43
2018-03-19T04:57:48.097Z,5.90
2018-03-19T05:00:15.591Z,6.23
2018-03-19T05:02:43.892Z,5.87
2018-03-19T05:05:12.508Z,5.57
2018-03-19T05:07:40.036Z,6.10
2018-03-19T05:10:07.600Z,5.67
2018-03-19T05:12:35.247Z,5.80
2018-03-19T05:15:02.878Z,5.87
2018-03-19T05:17:30.568Z,5.40
2018-03-19T05:19:58.196Z,6.43
2018-03-19T05:22:26.448Z,6.30
2018-03-19T05:24:53.999Z,5.70
2018-03-19T05:27:21.585Z,5.60
2018-03-19T05:29:49.150Z,6.30
2018-03-19T05:32:17.510Z,5.80
2018-03-19T05:34:45.815Z,5.70
2018-03-19T05:37:13.332Z,6.20
2018-03-19T05:39:40.863Z,6.27
2018-03-19T05:42:08.384Z,6.47
2018-03-19T05:44:35.948Z,5.73
2018-03-19T05:47:03.548Z,5.77
2018-03-19T05:49:31.267Z,5.77
2018-03-19T05:51:58.821Z,5.70
2018-03-19T05:54:26.355Z,6.00
2018-03-19T05:59:27.954Z,6.20
2018-03-19T06:01:56.272Z,6.00
2018-03-19T06:04:23.800Z,5.93
2018-03-19T06:06:51.368Z,6.80
2018-03-19T06:09:18.931Z,6.23
2018-03-19T06:11:47.265Z,6.37
2018-03-19T06:14:14.789Z,5.73
2018-03-19T06:16:42.332Z,5.90
2018-03-19T06:19:09.857Z,5.83
2018-03-19T06:21:37.391Z,6.70
2018-03-19T06:24:04.984Z,5.90
2018-03-19T06:26:32.678Z,7.00
2018-03-19T06:29:00.363Z,6.50
2018-03-19T06:31:28.299Z,6.10
2018-03-19T06:33:56.621Z,6.10
2018-03-19T06:36:24.900Z,6.57
2018-03-19T06:38:53.218Z,5.93
2018-03-19T06:41:20.785Z,6.00
2018-03-19T06:43:48.332Z,6.00
2018-03-19T06:46:16.619Z,5.97
2018-03-19T06:48:44.924Z,6.03
2018-03-19T06:51:13.260Z,5.97
2018-03-19T06:53:40.792Z,6.37
2018-03-19T06:56:09.080Z,6.70
2018-03-19T06:58:37.390Z,6.37
2018-03-19T07:01:04.953Z,6.53
2018-03-19T07:03:32.606Z,5.93
2018-03-19T07:06:01.093Z,5.93
2018-03-19T07:08:29.446Z,7.07
2018-03-19T07:10:57.021Z,6.13
2018-03-19T07:13:24.557Z,6.43
2018-03-19T07:15:52.148Z,6.63
2018-03-19T07:18:19.935Z,6.40
2018-03-19T07:20:47.472Z,7.07
2018-03-19T07:23:14.984Z,6.67
2018-03-19T07:25:42.533Z,7.43
2018-03-19T07:28:10.990Z,7.40
2018-03-19T07:30:39.485Z,6.30
2018-03-19T07:33:07.759Z,6.57
2018-03-19T07:35:36.263Z,6.57
2018-03-19T07:38:04.644Z,6.70
2018-03-19T07:40:32.398Z,6.83
2018-03-19T07:43:00.009Z,6.37
2018-03-19T07:45:27.559Z,6.10
2018-03-19T07:47:55.872Z,6.67
2018-03-19T07:50:23.408Z,6.53
2018-03-19T07:52:50.954Z,6.83
2018-03-19T07:55:18.540Z,6.67
2018-03-19T07:57:46.056Z,7.00
2018-03-19T08:00:13.616Z,6.80
2018-03-19T08:02:41.895Z,6.77
2018-03-19T08:05:10.174Z,6.23
2018-03-19T08:07:37.755Z,7.43
2018-03-19T08:10:06.204Z,6.93
2018-03-19T08:12:33.975Z,6.93
2018-03-19T08:15:01.688Z,6.70
2018-03-19T08:17:30.465Z,7.50
2018-03-19T08:19:58.096Z,7.07
2018-03-19T08:22:25.633Z,7.70
2018-03-19T08:24:53.144Z,7.63
2018-03-19T08:27:20.821Z,7.30
2018-03-19T08:29:48.357Z,6.80
2018-03-19T08:32:16.664Z,7.30
2018-03-19T08:34:45.117Z,7.53
2018-03-19T08:37:12.844Z,6.83
2018-03-19T08:39:40.367Z,7.23
2018-03-19T08:42:07.907Z,6.73
2018-03-19T08:44:35.492Z,6.80
2018-03-19T08:47:03.197Z,7.70
2018-03-19T08:49:32.140Z,7.40
2018-03-19T08:51:59.707Z,7.70
2018-03-19T08:54:27.264Z,7.07
2018-03-19T08:56:54.773Z,7.00
2018-03-19T08:59:23.076Z,7.60
2018-03-19T09:01:50.636Z,7.30
2018-03-19T09:04:18.290Z,8.00
2018-03-19T09:06:46.491Z,6.87
2018-03-19T09:09:14.028Z,7.50
2018-03-19T09:11:41.543Z,7.30
2018-03-19T09:14:09.079Z,6.67
2018-03-19T09:16:36.640Z,7.43
2018-03-19T09:19:04.172Z,7.70
2018-03-19T09:21:31.883Z,7.70
2018-03-19T09:23:59.563Z,7.87
2018-03-19T09:26:27.096Z,7.50
2018-03-19T09:28:54.608Z,7.20
2018-03-19T09:31:22.243Z,7.80
2018-03-19T09:33:49.769Z,7.60
2018-03-19T09:36:17.316Z,7.10
2018-03-19T09:38:44.840Z,8.40
2018-03-19T09:41:12.372Z,7.67
2018-03-19T09:43:39.881Z,7.97
2018-03-19T09:46:07.416Z,7.33
2018-03-19T09:48:35.069Z,7.70
2018-03-19T09:51:02.830Z,7.77
2018-03-19T09:53:30.775Z,7.67
2018-03-19T09:55:59.390Z,7.30
2018-03-19T09:58:26.988Z,7.67
2018-03-19T10:00:54.528Z,7.43
2018-03-19T10:03:22.185Z,7.60
2018-03-19T10:05:49.895Z,7.23
2018-03-19T10:08:18.201Z,7.87
2018-03-19T10:10:45.743Z,7.87
2018-03-19T10:13:14.049Z,7.57
2018-03-19T10:15:42.324Z,7.63
2018-03-19T10:18:10.624Z,7.60
2018-03-19T10:20:38.905Z,7.17
2018-03-19T10:23:07.265Z,8.07
2018-03-19T10:25:34.812Z,7.73
2018-03-19T10:28:02.540Z,7.73
2018-03-19T10:30:31.102Z,7.50
2018-03-19T10:32:59.722Z,7.40
2018-03-19T10:35:28.036Z,8.00
2018-03-19T10:37:55.584Z,7.70
2018-03-19T10:40:23.142Z,7.60
2018-03-19T10:42:50.732Z,8.10
2018-03-19T10:45:19.031Z,7.37
2018-03-19T10:47:46.638Z,6.87
2018-03-19T10:50:14.165Z,7.50
2018-03-19T10:52:42.477Z,7.57
2018-03-19T10:55:09.993Z,7.40
2018-03-19T10:57:37.568Z,7.00
2018-03-19T11:00:05.377Z,7.00
2018-03-19T11:02:33.789Z,7.30
2018-03-19T11:05:07.056Z,7.43
2018-03-19T11:07:40.247Z,7.00
2018-03-19T11:10:07.813Z,7.07
2018-03-19T11:12:36.104Z,6.80
2018-03-19T11:15:03.743Z,7.03
2018-03-19T11:17:31.351Z,7.27
2018-03-19T11:19:59.866Z,7.60
2018-03-19T11:22:27.380Z,7.70
2018-03-19T11:24:54.912Z,6.93
2018-03-19T11:27:23.224Z,7.37
2018-03-19T11:29:50.892Z,6.60
2018-03-19T11:32:18.442Z,7.00
2018-03-19T11:34:45.981Z,6.87
2018-03-19T11:37:13.528Z,7.07
2018-03-19T11:39:41.078Z,6.57
2018-03-19T11:42:08.678Z,7.50
2018-03-19T11:44:36.363Z,6.97
2018-03-19T11:47:04.092Z,6.23
2018-03-19T11:49:31.910Z,6.63
2018-03-19T11:51:59.623Z,6.53
2018-03-19T11:54:27.955Z,6.70
2018-03-19T11:56:55.517Z,7.43
2018-03-19T11:59:23.865Z,7.50
2018-03-19T12:01:51.439Z,7.40
2018-03-19T12:04:18.965Z,8.00
2018-03-19T12:06:46.503Z,7.73
2018-03-19T12:09:14.824Z,7.43
2018-03-19T12:11:42.363Z,8.10
2018-03-19T12:14:09.884Z,7.80
2018-03-19T12:16:37.424Z,8.00
2018-03-19T12:19:05.632Z,7.47
2018-03-19T12:21:33.365Z,7.50
2018-03-19T12:24:00.929Z,7.57
2018-03-19T12:26:29.284Z,7.70
2018-03-19T12:28:57.674Z,7.50
2018-03-19T12:31:25.196Z,7.73
2018-03-19T12:33:52.817Z,7.27
2018-03-19T12:36:20.508Z,8.10
2018-03-19T12:38:48.044Z,7.53
2018-03-19T12:41:15.564Z,7.30
2018-03-19T12:43:43.865Z,7.47
2018-03-19T12:46:12.150Z,7.63
2018-03-19T12:48:40.464Z,7.50
2018-03-19T12:51:07.988Z,6.90
2018-03-19T12:53:35.618Z,7.43
2018-03-19T12:56:03.249Z,7.10
2018-03-19T12:58:31.821Z,7.73
2018-03-19T13:01:01.274Z,7.13
2018-03-19T13:03:28.979Z,7.67
2018-03-19T13:05:56.596Z,7.33
2018-03-19T13:08:24.143Z,6.83
2018-03-19T13:10:52.304Z,6.57
2018-03-19T13:13:20.367Z,6.57
2018-03-19T13:15:47.881Z,6.77
2018-03-19T13:18:15.404Z,6.77
2018-03-19T13:20:42.938Z,6.90
2018-03-19T13:23:10.448Z,6.63
2018-03-19T13:25:37.992Z,7.17
2018-03-19T13:28:05.571Z,6.13
2018-03-19T13:30:33.852Z,6.60
2018-03-19T13:33:01.821Z,6.13
2018-03-19T13:35:29.417Z,6.27
2018-03-19T13:37:57.750Z,6.27
2018-03-19T13:40:25.344Z,5.77
2018-03-19T13:42:52.857Z,6.30
2018-03-19T13:45:20.621Z,6.17
2018-03-19T13:47:48.988Z,5.83
2018-03-19T13:50:17.308Z,6.17
2018-03-19T13:52:45.588Z,6.47
2018-03-19T13:55:13.889Z,6.40
2018-03-19T13:57:41.447Z,6.00
2018-03-19T14:00:09.740Z,6.40
2018-03-19T14:02:38.217Z,5.93
2018-03-19T14:05:05.733Z,5.97
2018-03-19T14:07:33.374Z,6.50
2018-03-19T14:10:01.890Z,6.27
2018-03-19T14:12:46.064Z,5.70
2018-03-19T14:15:13.595Z,6.07
2018-03-19T14:17:41.876Z,6.03
2018-03-19T14:20:09.396Z,5.43
2018-03-19T14:22:36.996Z,6.13
2018-03-19T14:25:04.760Z,5.70
2018-03-19T14:27:32.424Z,5.97
2018-03-19T14:30:00.304Z,5.43
2018-03-19T14:32:27.837Z,5.67
2018-03-19T14:34:55.387Z,5.50
2018-03-19T14:37:22.983Z,5.50
2018-03-19T14:39:50.679Z,6.00
2018-03-19T14:42:18.194Z,5.47
2018-03-19T14:44:45.735Z,5.43
2018-03-19T14:47:13.244Z,5.30
2018-03-19T14:49:40.773Z,5.87
2018-03-19T14:52:08.320Z,5.00
2018-03-19T14:54:35.840Z,5.00
2018-03-19T14:57:04.480Z,5.43
2018-03-19T14:59:32.323Z,5.23
2018-03-19T15:01:59.928Z,5.47
2018-03-19T15:04:27.460Z,5.00
2018-03-19T15:06:55.081Z,4.83
2018-03-19T15:09:23.111Z,5.03
2018-03-19T15:11:50.732Z,5.30
2018-03-19T15:14:18.426Z,4.67
2018-03-19T15:16:45.935Z,5.27
2018-03-19T15:19:13.450Z,5.20
2018-03-19T15:21:40.985Z,3.80
2018-03-19T15:24:08.507Z,5.07
2018-03-19T15:26:36.088Z,3.73
2018-03-19T15:29:03.776Z,5.13
2018-03-19T15:31:31.383Z,5.33
2018-03-19T15:34:02.253Z,5.10
2018-03-19T15:36:30.447Z,5.17
2018-03-19T15:38:59.324Z,5.60
2018-03-19T15:41:26.835Z,5.00
2018-03-19T15:43:54.377Z,4.63
2018-03-19T15:46:21.991Z,4.70
2018-03-19T15:48:49.629Z,4.73
2018-03-19T15:51:17.515Z,4.97
2018-03-19T15:53:45.024Z,4.57
2018-03-19T15:56:12.533Z,4.70
2018-03-19T15:58:40.824Z,4.50
2018-03-19T16:01:09.104Z,4.70
2018-03-19T16:03:37.428Z,4.80
2018-03-19T16:06:05.023Z,4.83
2018-03-19T16:08:32.694Z,4.83
2018-03-19T16:11:00.669Z,5.03
2018-03-19T16:13:28.282Z,5.20
2018-03-19T16:15:55.788Z,5.03
2018-03-19T16:18:23.306Z,4.50
2018-03-19T16:20:51.691Z,5.30
2018-03-19T16:23:19.255Z,4.53
2018-03-19T16:25:46.809Z,5.23
2018-03-19T16:28:14.320Z,5.00
2018-03-19T16:30:41.859Z,5.50
2018-03-19T16:33:09.362Z,5.00
2018-03-19T16:35:36.875Z,5.23
2018-03-19T16:38:04.507Z,5.97
2018-03-19T16:40:32.314Z,5.00
2018-03-19T16:43:00.071Z,5.37
2018-03-19T16:45:28.399Z,5.70
2018-03-19T16:47:55.968Z,5.90
2018-03-19T16:50:23.481Z,5.47
2018-03-19T16:52:51.050Z,6.30
2018-03-19T16:55:18.588Z,6.20
2018-03-19T16:57:46.133Z,5.67
2018-03-19T17:00:14.437Z,5.90
2018-03-19T17:02:41.940Z,5.20
2018-03-19T17:05:09.476Z,5.23
2018-03-19T17:07:36.988Z,5.93
2018-03-19T17:10:04.565Z,5.70
2018-03-19T17:12:32.221Z,5.20
2018-03-19T17:14:59.789Z,5.77
2018-03-19T17:17:27.383Z,5.80
2018-03-19T17:19:54.891Z,5.93
2018-03-19T17:22:23.268Z,5.10
2018-03-19T17:24:50.739Z,5.37
2018-03-19T17:27:19.065Z,6.17
2018-03-19T17:29:46.642Z,5.67
2018-03-19T17:32:14.169Z,5.43
2018-03-19T17:34:41.709Z,5.77
2018-03-19T17:37:09.228Z,5.27
2018-03-19T17:39:37.516Z,5.50
2018-03-19T17:42:05.079Z,5.70
2018-03-19T17:44:32.800Z,5.77
2018-03-19T17:47:00.446Z,5.57
2018-03-19T17:49:28.017Z,5.97
2018-03-19T17:51:55.578Z,5.90
2018-03-19T17:54:23.102Z,5.57
2018-03-19T17:56:51.407Z,5.33
2018-03-19T17:59:18.951Z,5.93
2018-03-19T18:01:47.282Z,6.03
2018-03-19T18:04:15.556Z,5.80
2018-03-19T18:06:43.089Z,5.33
2018-03-19T18:09:10.600Z,5.83
2018-03-19T18:11:38.113Z,6.10
2018-03-19T18:14:06.068Z,5.80
2018-03-19T18:16:33.637Z,5.87
2018-03-19T18:19:02.005Z,5.27
2018-03-19T18:21:30.444Z,5.37
2018-03-19T18:23:58.085Z,5.27
2018-03-19T18:26:26.360Z,4.93
2018-03-19T18:28:53.902Z,5.57
2018-03-19T18:31:21.487Z,5.43
2018-03-19T18:33:49.032Z,5.00
2018-03-19T18:36:16.580Z,5.07
2018-03-19T18:38:44.099Z,5.10
2018-03-19T18:41:13.175Z,5.50
2018-03-19T18:43:40.696Z,5.20
2018-03-19T18:46:08.229Z,5.60
2018-03-19T18:48:36.092Z,5.17
2018-03-19T18:51:04.246Z,5.60
2018-03-19T18:53:32.019Z,5.67
2018-03-19T18:56:00.342Z,5.13
2018-03-19T18:58:27.904Z,5.07
2018-03-19T19:00:55.455Z,5.30
2018-03-19T19:03:23.748Z,5.37
2018-03-19T19:05:52.020Z,5.10
2018-03-19T19:08:20.392Z,5.60
2018-03-19T19:10:48.691Z,5.40
2018-03-19T19:13:16.362Z,5.00
2018-03-19T19:15:44.645Z,5.37
2018-03-19T19:18:12.154Z,5.47
2018-03-19T19:20:39.684Z,4.90
2018-03-19T19:23:07.192Z,4.87
2018-03-19T19:25:34.860Z,4.90
2018-03-19T19:28:03.193Z,5.13
2018-03-19T19:30:31.743Z,5.33
2018-03-19T19:32:59.438Z,4.90
2018-03-19T19:35:27.004Z,4.93
2018-03-19T19:37:54.533Z,4.67
2018-03-19T19:40:22.092Z,4.60
2018-03-19T19:42:50.028Z,4.70
2018-03-19T19:45:17.639Z,4.30
2018-03-19T19:47:45.164Z,5.17
2018-03-19T19:50:12.663Z,4.77
2018-03-19T19:52:40.260Z,4.50
2018-03-19T19:55:07.771Z,4.90
2018-03-19T19:57:35.376Z,5.07
2018-03-19T20:00:03.220Z,4.63
2018-03-19T20:02:30.815Z,4.83
2018-03-19T20:04:59.068Z,4.20
2018-03-19T20:07:26.614Z,4.70
2018-03-19T20:09:54.151Z,4.50
2018-03-19T20:12:21.708Z,4.67
2018-03-19T20:14:49.553Z,4.33
2018-03-19T20:17:17.828Z,4.77
2018-03-19T20:19:45.359Z,4.90
2018-03-19T20:22:12.867Z,4.53
2018-03-19T20:24:40.409Z,4.73
2018-03-19T20:27:07.936Z,4.57
2018-03-19T20:29:35.601Z,4.70
2018-03-19T20:32:03.235Z,4.60
2018-03-19T20:34:31.056Z,4.67
2018-03-19T20:36:58.696Z,4.80
2018-03-19T20:39:27.012Z,4.37
2018-03-19T20:41:55.320Z,4.93
2018-03-19T20:44:23.260Z,4.77
2018-03-19T20:46:50.861Z,4.27
2018-03-19T20:49:18.458Z,4.47
2018-03-19T20:51:45.993Z,4.60
2018-03-19T20:54:14.293Z,4.17
2018-03-19T20:56:41.835Z,4.40
2018-03-19T20:59:09.696Z,4.77
2018-03-19T21:01:37.212Z,4.43
2018-03-19T21:04:04.835Z,4.70
2018-03-19T21:06:32.479Z,4.33
2018-03-19T21:09:00.115Z,4.53
2018-03-19T21:11:28.503Z,4.83
2018-03-19T21:13:56.803Z,4.80
2018-03-19T21:16:25.106Z,3.80
2018-03-19T21:18:52.629Z,4.37
2018-03-19T21:21:20.979Z,4.83
2018-03-19T21:23:48.564Z,4.70
2018-03-19T21:26:16.116Z,4.60
2018-03-19T21:28:43.658Z,4.50
2018-03-19T21:31:12.031Z,4.80
2018-03-19T21:33:39.543Z,4.10
2018-03-19T21:36:07.067Z,5.10
2018-03-19T21:38:35.432Z,5.07
2018-03-19T21:41:03.062Z,5.13
2018-03-19T21:43:31.723Z,5.10
2018-03-19T21:45:59.473Z,4.67
2018-03-19T21:48:27.020Z,5.10
2018-03-19T21:50:54.579Z,4.80
2018-03-19T21:53:23.003Z,4.50
2018-03-19T21:55:50.621Z,4.53
2018-03-19T21:58:18.944Z,4.77
2018-03-19T22:00:46.485Z,4.57
2018-03-19T22:03:14.763Z,4.70
2018-03-19T22:05:42.308Z,5.37
2018-03-19T22:08:09.838Z,4.93
2018-03-19T22:10:37.406Z,5.13
2018-03-19T22:13:04.971Z,4.77
2018-03-19T22:15:33.696Z,4.67
2018-03-19T22:18:01.329Z,4.17
2018-03-19T22:20:29.653Z,4.20
2018-03-19T22:22:57.257Z,5.50
2018-03-19T22:25:24.787Z,5.27
2018-03-19T22:27:52.396Z,5.17
2018-03-19T22:30:19.933Z,5.43
2018-03-19T22:32:47.468Z,5.67
2018-03-19T22:35:14.992Z,6.13
2018-03-19T22:37:42.535Z,6.30
2018-03-19T22:40:10.815Z,5.40
2018-03-19T22:42:39.099Z,6.10
2018-03-19T22:45:07.426Z,5.30
2018-03-19T22:47:35.066Z,4.97
2018-03-19T22:50:03.710Z,5.70
2018-03-19T22:52:31.524Z,5.20
2018-03-19T22:54:59.981Z,5.47
2018-03-19T22:57:27.504Z,5.73
2018-03-19T22:59:55.081Z,5.30
2018-03-19T23:02:22.659Z,5.93
2018-03-19T23:07:58.443Z,5.40
2018-03-19T23:10:25.991Z,5.80
2018-03-19T23:12:53.572Z,5.80
2018-03-19T23:15:22.301Z,5.53
2018-03-19T23:17:49.872Z,5.67
2018-03-19T23:20:17.449Z,5.33
2018-03-19T23:22:44.984Z,5.40
2018-03-19T23:25:12.497Z,6.37
2018-03-19T23:27:40.040Z,5.73
2018-03-19T23:30:08.315Z,6.13
2018-03-19T23:32:36.622Z,6.57
2018-03-19T23:35:05.128Z,6.30
2018-03-19T23:37:32.995Z,6.43
2018-03-19T23:40:00.837Z,6.43
2018-03-19T23:42:28.385Z,5.13
2018-03-19T23:44:55.943Z,5.60
2018-03-19T23:47:23.556Z,6.37
2018-03-19T23:49:51.203Z,6.40
2018-03-19T23:52:18.799Z,5.53
2018-03-19T23:54:46.425Z,5.13
2018-03-19T23:57:13.941Z,6.40
2018-03-19T23:59:41.489Z,6.10
